createdAt,value
2024-02-12T06:20:56.883Z,85.47
2024-02-12T06:23:26.692Z,85.49
2024-02-12T06:25:55.385Z,85.50
2024-02-12T06:28:25.229Z,85.51
2024-02-12T06:30:53.821Z,85.59
2024-02-12T06:33:22.752Z,85.53
2024-02-12T06:35:51.494Z,85.57
2024-02-12T06:38:20.102Z,85.60
2024-02-12T06:40:50.389Z,85.66
2024-02-12T06:43:18.905Z,85.70
2024-02-12T06:45:47.761Z,85.63
2024-02-12T06:48:16.441Z,85.50
2024-02-12T06:50:45.975Z,85.53
2024-02-12T06:53:14.989Z,85.60
2024-02-12T06:55:43.576Z,85.51
2024-02-12T06:58:12.243Z,85.48
2024-02-12T07:00:40.899Z,85.40
2024-02-12T07:03:09.749Z,85.41
2024-02-12T07:05:39.360Z,85.27
2024-02-12T07:08:10.493Z,85.26
2024-02-12T07:10:39.049Z,85.24
2024-02-12T07:13:08.430Z,85.26
2024-02-12T07:15:38.384Z,85.13
2024-02-12T07:18:07.124Z,85.12
2024-02-12T07:20:37.085Z,85.10
2024-02-12T07:23:06.078Z,85.13
2024-02-12T07:25:36.491Z,85.03
2024-02-12T07:28:06.467Z,84.80
2024-02-12T07:30:35.264Z,84.80
2024-02-12T07:33:05.726Z,84.69
2024-02-12T07:35:35.147Z,84.58
2024-02-12T07:38:05.723Z,84.49
2024-02-12T07:40:35.252Z,84.45
2024-02-12T07:43:04.161Z,84.38
2024-02-12T07:45:36.058Z,84.11
2024-02-12T07:48:05.790Z,84.12
2024-02-12T07:50:34.869Z,84.03
2024-02-12T07:53:04.731Z,83.92
2024-02-12T07:55:33.658Z,84.01
2024-02-12T07:58:02.410Z,84.05
2024-02-12T08:00:31.172Z,83.95
2024-02-12T08:03:00.462Z,83.78
2024-02-12T08:05:29.266Z,83.41
2024-02-12T08:08:03.306Z,83.27
2024-02-12T08:10:33.196Z,83.34
2024-02-12T08:13:02.845Z,83.37
2024-02-12T08:15:32.374Z,83.20
2024-02-12T08:18:01.405Z,82.94
2024-02-12T08:20:30.400Z,82.59
2024-02-12T08:22:59.460Z,82.56
2024-02-12T08:25:29.456Z,82.15
2024-02-12T08:27:58.215Z,81.92
2024-02-12T08:30:26.838Z,81.90
2024-02-12T08:32:55.830Z,81.69
2024-02-12T08:35:24.597Z,81.28
2024-02-12T08:37:53.059Z,80.78
2024-02-12T08:40:21.790Z,80.55
2024-02-12T08:42:51.810Z,80.64
2024-02-12T08:45:20.577Z,80.19
2024-02-12T08:47:49.401Z,80.24
2024-02-12T08:50:19.092Z,80.15
2024-02-12T08:52:47.651Z,80.14
2024-02-12T08:55:18.116Z,80.11
2024-02-12T08:57:46.990Z,79.58
2024-02-12T09:00:24.110Z,79.22
2024-02-12T09:02:52.858Z,79.49
2024-02-12T09:05:21.705Z,79.33
2024-02-12T09:07:50.391Z,79.48
2024-02-12T09:10:22.742Z,78.85
2024-02-12T09:12:54.050Z,78.79
2024-02-12T09:15:24.097Z,78.76
2024-02-12T09:17:53.850Z,78.32
2024-02-12T09:20:22.819Z,78.46
2024-02-12T09:22:53.308Z,78.57
2024-02-12T09:25:24.684Z,78.45
2024-02-12T09:27:55.029Z,77.83
2024-02-12T09:30:24.521Z,78.03
2024-02-12T09:32:53.611Z,77.66
2024-02-12T09:35:22.538Z,77.19
2024-02-12T09:37:51.809Z,77.13
2024-02-12T09:40:23.807Z,77.63
2024-02-12T09:42:58.303Z,77.38
2024-02-12T09:45:31.052Z,76.94
2024-02-12T09:48:02.924Z,77.17
2024-02-12T09:50:34.370Z,77.21
2024-02-12T09:53:03.477Z,76.59
2024-02-12T09:55:33.567Z,75.93
2024-02-12T09:58:02.150Z,75.05
2024-02-12T10:00:31.483Z,75.72
2024-02-12T10:03:00.538Z,75.36
2024-02-12T10:05:32.461Z,75.23
2024-02-12T10:08:03.285Z,75.01
2024-02-12T10:10:32.586Z,75.21
2024-02-12T10:13:01.212Z,74.87
2024-02-12T10:15:31.244Z,74.72
2024-02-12T10:18:00.025Z,74.92
2024-02-12T10:20:28.607Z,74.33
2024-02-12T10:23:01.220Z,74.49
2024-02-12T10:25:30.269Z,74.24
2024-02-12T10:28:00.060Z,74.72
2024-02-12T10:30:28.946Z,74.42
2024-02-12T10:33:08.153Z,74.32
2024-02-12T10:35:48.440Z,73.79
2024-02-12T10:38:18.552Z,74.29
2024-02-12T10:41:00.264Z,73.84
2024-02-12T10:43:37.633Z,73.37
2024-02-12T10:46:08.872Z,73.69
2024-02-12T10:48:40.155Z,73.11
2024-02-12T10:51:10.029Z,72.81
2024-02-12T10:53:43.294Z,73.60
2024-02-12T10:56:12.552Z,73.73
2024-02-12T10:58:42.038Z,73.08
2024-02-12T11:01:15.725Z,72.79
2024-02-12T11:03:50.714Z,72.04
2024-02-12T11:06:20.600Z,72.89
2024-02-12T11:08:51.632Z,72.41
2024-02-12T11:11:31.689Z,72.08
2024-02-12T11:14:10.973Z,70.98
2024-02-12T11:16:40.389Z,70.91
2024-02-12T11:19:20.720Z,70.81
2024-02-12T11:21:59.609Z,70.42
2024-02-12T11:24:39.426Z,70.42
2024-02-12T11:27:10.541Z,70.38
2024-02-12T11:29:48.318Z,70.76
2024-02-12T11:32:23.737Z,70.84
2024-02-12T11:34:53.273Z,70.69
2024-02-12T11:37:21.918Z,70.20
2024-02-12T11:39:59.770Z,69.43
2024-02-12T11:42:29.463Z,69.32
2024-02-12T11:44:58.188Z,68.91
2024-02-12T11:47:27.246Z,69.60
2024-02-12T11:49:56.581Z,69.65
2024-02-12T11:52:25.188Z,69.74
2024-02-12T11:54:54.125Z,68.71
2024-02-12T11:57:25.622Z,69.17
2024-02-12T11:59:59.491Z,68.86
2024-02-12T12:02:28.706Z,68.58
2024-02-12T12:04:57.714Z,68.79
2024-02-12T12:07:31.231Z,69.58
2024-02-12T12:10:06.456Z,69.78
2024-02-12T12:12:37.193Z,70.15
2024-02-12T12:15:10.876Z,69.70
2024-02-12T12:17:40.127Z,69.72
2024-02-12T12:20:19.833Z,70.52
2024-02-12T12:22:50.052Z,70.92
2024-02-12T12:25:21.767Z,70.37
2024-02-12T12:27:51.881Z,69.35
2024-02-12T12:30:20.853Z,69.49
2024-02-12T12:32:53.147Z,69.41
2024-02-12T12:35:21.980Z,69.59
2024-02-12T12:37:52.770Z,69.59
2024-02-12T12:40:21.714Z,69.52
2024-02-12T12:42:52.136Z,69.80
2024-02-12T12:45:22.987Z,69.13
2024-02-12T12:47:52.169Z,68.61
2024-02-12T12:50:21.005Z,67.52
2024-02-12T12:52:50.134Z,67.69
2024-02-12T12:55:21.658Z,68.67
2024-02-12T12:57:53.235Z,68.85
2024-02-12T13:00:28.608Z,69.02
2024-02-12T13:02:57.922Z,69.31
2024-02-12T13:05:27.222Z,68.98
2024-02-12T13:08:17.548Z,69.43
2024-02-12T13:10:48.024Z,69.50
2024-02-12T13:13:41.957Z,70.06
2024-02-12T13:16:10.836Z,70.79
2024-02-12T13:18:39.772Z,70.96
2024-02-12T13:21:08.645Z,70.90
2024-02-12T13:23:38.265Z,70.99
2024-02-12T13:26:13.997Z,70.68
2024-02-12T13:28:44.255Z,70.33
2024-02-12T13:34:33.344Z,70.91
2024-02-12T13:37:02.115Z,70.44
2024-02-12T13:39:31.845Z,70.05
2024-02-12T13:42:00.492Z,69.96
2024-02-12T13:44:29.136Z,69.87
2024-02-12T13:46:58.810Z,70.26
2024-02-12T13:49:27.609Z,69.69
2024-02-12T13:51:57.072Z,69.11
2024-02-12T13:54:27.767Z,69.23
2024-02-12T13:56:56.355Z,68.89
2024-02-12T13:59:26.107Z,68.78
2024-02-12T14:02:00.726Z,69.14
2024-02-12T14:04:33.390Z,69.35
2024-02-12T14:07:02.421Z,69.61
2024-02-12T14:09:31.537Z,69.43
2024-02-12T14:12:00.086Z,69.50
2024-02-12T14:14:28.946Z,69.83
2024-02-12T14:16:57.621Z,69.83
2024-02-12T14:19:26.444Z,69.73
2024-02-12T14:21:56.500Z,70.23
2024-02-12T14:24:25.232Z,71.71
2024-02-12T14:26:59.817Z,72.61
2024-02-12T14:29:29.972Z,72.87
2024-02-12T14:32:37.229Z,72.96
2024-02-12T14:34:48.435Z,73.56
2024-02-12T14:37:17.586Z,73.77
2024-02-12T14:39:46.389Z,74.30
2024-02-12T14:42:17.561Z,74.51
2024-02-12T14:44:46.504Z,74.68
2024-02-12T14:47:15.283Z,74.99
2024-02-12T14:49:46.418Z,74.97
2024-02-12T14:52:15.068Z,75.20
2024-02-12T14:54:43.719Z,75.20
2024-02-12T14:57:13.498Z,75.41
2024-02-12T14:59:42.817Z,75.41
2024-02-12T15:02:17.598Z,75.34
2024-02-12T15:04:47.325Z,75.41
2024-02-12T15:07:19.049Z,75.65
2024-02-12T15:09:48.505Z,75.70
2024-02-12T15:12:24.823Z,75.23
2024-02-12T15:14:54.384Z,75.15
2024-02-12T15:17:22.958Z,75.18
2024-02-12T15:19:51.747Z,75.28
2024-02-12T15:22:24.749Z,75.42
2024-02-12T15:24:54.520Z,75.59
2024-02-12T15:27:23.122Z,75.80
2024-02-12T15:29:51.785Z,76.05
2024-02-12T15:32:24.565Z,76.24
2024-02-12T15:34:54.096Z,76.43
2024-02-12T15:37:23.006Z,76.61
2024-02-12T15:39:51.548Z,76.79
2024-02-12T15:42:24.240Z,76.95
2024-02-12T15:44:53.901Z,77.08
2024-02-12T15:47:22.835Z,77.27
2024-02-12T15:49:53.499Z,77.43
2024-02-12T15:52:27.085Z,77.55
2024-02-12T15:54:56.711Z,77.76
2024-02-12T15:57:27.836Z,77.93
2024-02-12T15:59:56.565Z,78.06
2024-02-12T16:02:25.575Z,78.33
2024-02-12T16:04:54.593Z,78.56
2024-02-12T16:07:23.426Z,78.82
2024-02-12T16:09:52.053Z,78.98
2024-02-12T16:12:22.239Z,79.09
2024-02-12T16:14:52.258Z,79.32
2024-02-12T16:17:21.221Z,79.45
2024-02-12T16:19:50.578Z,79.64
2024-02-12T16:22:20.552Z,79.73
2024-02-12T16:24:49.883Z,80.00
2024-02-12T16:27:18.763Z,80.10
2024-02-12T16:29:48.512Z,80.18
2024-02-12T16:32:17.619Z,80.47
2024-02-12T16:34:48.337Z,80.70
2024-02-12T16:37:17.207Z,80.74
2024-02-12T16:39:46.016Z,80.98
2024-02-12T16:42:14.764Z,81.22
2024-02-12T16:44:44.439Z,81.41
2024-02-12T16:47:13.275Z,81.63
2024-02-12T16:49:42.062Z,81.84
2024-02-12T16:52:12.083Z,82.03
2024-02-12T16:54:42.180Z,82.20
2024-02-12T16:57:11.077Z,82.39
2024-02-12T16:59:40.074Z,82.51
2024-02-12T17:02:14.254Z,82.76
2024-02-12T17:04:43.001Z,83.28
2024-02-12T17:07:12.267Z,83.72
2024-02-12T17:09:42.982Z,83.79
2024-02-12T17:12:12.348Z,83.62
2024-02-12T17:14:44.138Z,83.31
2024-02-12T17:17:13.321Z,83.13
2024-02-12T17:19:43.136Z,82.99
2024-02-12T17:22:13.280Z,82.63
2024-02-12T17:24:42.390Z,82.39
2024-02-12T17:27:14.461Z,82.22
2024-02-12T17:29:44.581Z,82.16
2024-02-12T17:32:13.991Z,82.06
2024-02-12T17:34:43.130Z,81.91
2024-02-12T17:37:12.265Z,81.80
2024-02-12T17:39:40.856Z,81.75
2024-02-12T17:42:10.566Z,81.66
2024-02-12T17:44:39.278Z,81.63
2024-02-12T17:47:09.602Z,81.61
2024-02-12T17:49:39.418Z,81.63
2024-02-12T17:52:09.615Z,81.72
2024-02-12T17:54:38.271Z,81.84
2024-02-12T17:57:10.128Z,82.02
2024-02-12T17:59:38.862Z,82.15
2024-02-12T18:02:09.034Z,82.24
2024-02-12T18:04:39.284Z,82.31
2024-02-12T18:07:14.743Z,82.48
2024-02-12T18:09:44.826Z,82.60
2024-02-12T18:12:22.501Z,82.66
2024-02-12T18:14:51.966Z,82.80
2024-02-12T18:17:25.643Z,83.06
2024-02-12T18:19:57.756Z,83.33
2024-02-12T18:22:27.048Z,83.38
2024-02-12T18:24:55.774Z,83.71
2024-02-12T18:27:24.356Z,83.95
2024-02-12T18:29:53.105Z,83.94
2024-02-12T18:32:22.770Z,83.92
2024-02-12T18:34:51.919Z,84.10
2024-02-12T18:37:20.583Z,84.23
2024-02-12T18:39:49.588Z,84.32
2024-02-12T18:42:19.125Z,84.47
2024-02-12T18:44:47.955Z,84.60
2024-02-12T18:47:17.010Z,84.70
2024-02-12T18:49:45.656Z,84.63
2024-02-12T18:52:14.478Z,84.64
2024-02-12T18:54:43.779Z,84.52
2024-02-12T18:57:12.694Z,84.56
2024-02-12T18:59:42.941Z,84.50
2024-02-12T19:02:11.810Z,84.48
2024-02-12T19:04:40.570Z,84.48
2024-02-12T19:07:09.923Z,84.57
2024-02-12T19:09:39.032Z,84.56
2024-02-12T19:12:08.798Z,84.54
2024-02-12T19:14:37.625Z,84.55
2024-02-12T19:17:09.518Z,84.50
2024-02-12T19:19:38.856Z,84.50
2024-02-12T19:22:07.446Z,84.57
2024-02-12T19:24:37.816Z,84.63
2024-02-12T19:27:06.581Z,84.60
2024-02-12T19:29:35.285Z,84.63
2024-02-12T19:32:09.974Z,84.63
2024-02-12T19:34:40.676Z,84.67
2024-02-12T19:37:09.538Z,84.60
2024-02-12T19:39:38.573Z,84.65
2024-02-12T19:42:08.151Z,84.75
2024-02-12T19:44:37.050Z,84.80
2024-02-12T19:47:08.561Z,84.96
2024-02-12T19:49:37.111Z,85.00
2024-02-12T19:52:06.150Z,85.16
2024-02-12T19:54:35.008Z,85.24
2024-02-12T19:57:05.078Z,85.28
2024-02-12T19:59:33.805Z,85.33
2024-02-12T20:02:03.703Z,85.48
2024-02-12T20:04:35.341Z,85.58
2024-02-12T20:07:04.918Z,85.48
2024-02-12T20:09:33.581Z,85.50
2024-02-12T20:12:02.377Z,85.59
2024-02-12T20:14:31.230Z,85.61
2024-02-12T20:16:59.844Z,85.61
2024-02-12T20:19:28.970Z,85.51
2024-02-12T20:21:57.629Z,85.45
2024-02-12T20:24:26.782Z,85.51
2024-02-12T20:26:55.439Z,85.50
2024-02-12T20:29:24.148Z,85.42
2024-02-12T20:31:52.725Z,85.42
2024-02-12T20:34:22.071Z,85.46
2024-02-12T20:36:50.793Z,85.40
2024-02-12T20:39:19.835Z,85.40
2024-02-12T20:41:48.587Z,85.49
2024-02-12T20:44:17.267Z,85.40
2024-02-12T20:46:45.928Z,85.46
2024-02-12T20:49:14.588Z,85.50
2024-02-12T20:51:43.289Z,85.59
2024-02-12T20:54:12.976Z,85.63
2024-02-12T20:56:42.070Z,85.60
2024-02-12T20:59:11.122Z,85.69
2024-02-12T21:01:39.879Z,85.60
2024-02-12T21:04:10.803Z,85.73
2024-02-12T21:06:39.673Z,85.82
2024-02-12T21:09:10.445Z,86.00
2024-02-12T21:11:40.419Z,86.01
2024-02-12T21:14:09.171Z,86.08
2024-02-12T21:16:39.844Z,86.24
2024-02-12T21:19:08.885Z,86.39
2024-02-12T21:21:38.876Z,86.50
2024-02-12T21:24:12.759Z,86.60
2024-02-12T21:26:41.877Z,86.63
2024-02-12T21:29:12.338Z,86.66
2024-02-12T21:31:41.523Z,86.63
2024-02-12T21:34:18.342Z,86.62
2024-02-12T21:36:47.875Z,86.93
2024-02-12T21:39:35.511Z,86.97
2024-02-12T21:42:25.152Z,86.96
2024-02-12T21:44:56.493Z,86.97
2024-02-12T21:47:25.785Z,86.94
2024-02-12T21:49:55.597Z,87.00
2024-02-12T21:52:27.407Z,86.99
2024-02-12T21:54:56.222Z,86.98
2024-02-12T21:57:25.085Z,87.01
2024-02-12T21:59:55.457Z,87.19
2024-02-12T22:02:24.977Z,87.24
2024-02-12T22:04:54.717Z,87.38
2024-02-12T22:07:24.430Z,87.37
2024-02-12T22:09:53.257Z,87.36
2024-02-12T22:12:22.322Z,87.47
2024-02-12T22:14:52.574Z,87.53
2024-02-12T22:17:24.523Z,87.52
2024-02-12T22:19:55.534Z,87.64
2024-02-12T22:22:24.125Z,87.75
2024-02-12T22:24:52.969Z,87.84
2024-02-12T22:27:21.609Z,87.92
2024-02-12T22:29:50.391Z,88.00
2024-02-12T22:32:19.046Z,88.09
2024-02-12T22:34:48.046Z,88.11
2024-02-12T22:37:17.463Z,88.12
2024-02-12T22:39:45.993Z,88.04
2024-02-12T22:42:14.597Z,88.09
2024-02-12T22:44:43.184Z,88.01
2024-02-12T22:47:12.201Z,88.06
2024-02-12T22:49:42.004Z,88.10
2024-02-12T22:52:13.642Z,88.05
2024-02-12T22:54:42.326Z,88.05
2024-02-12T22:57:11.661Z,88.10
